Time;durP1;ratioP1;P1;durP2;ratioP2;P2;SDS_P1;SDS_P2;PMS_P1;PMS_P2;Temp;Humidity;BMP_temperature;BMP_pressure;BME280_temperature;BME280_humidity;BME280_pressure;Samples;Min_cycle;Max_cycle;Signal;HPM_P1;HPM_P2
2021/10/16 00:00:53;;;;;;;;;15.33;14.67;;;;;16.05;61.38;101549.72;2091047;28;45336;-48
2021/10/16 00:01:53;;;;;;;;;14.00;12.67;;;;;16.05;61.37;101548.84;2090968;28;47666;-48
2021/10/16 00:02:54;;;;;;;;;14.00;12.33;;;;;16.05;61.93;101551.50;2090980;28;47269;-50
2021/10/16 00:03:54;;;;;;;;;13.50;12.50;;;;;16.03;61.92;101545.34;2090923;28;47785;-52
2021/10/16 00:04:55;;;;;;;;;16.25;16.25;;;;;16.03;61.45;101553.38;2091116;28;47139;-49
2021/10/16 00:05:55;;;;;;;;;13.50;13.25;;;;;16.03;61.92;101551.56;2090881;28;48235;-49
2021/10/16 00:06:56;;;;;;;;;13.67;13.33;;;;;16.01;61.71;101545.38;2091322;28;46146;-49
2021/10/16 00:07:56;;;;;;;;;18.00;18.00;;;;;16.01;61.90;101547.19;2092167;28;48529;-49
2021/10/16 00:08:57;;;;;;;;;11.00;11.00;;;;;16.00;61.52;101546.28;2093369;28;46101;-51
2021/10/16 00:09:58;;;;;;;;;16.00;14.67;;;;;16.00;61.90;101548.97;2083838;28;48307;-50
2021/10/16 00:10:58;;;;;;;;;14.33;14.33;;;;;16.00;61.40;101548.97;2081409;28;47269;-48
2021/10/16 00:11:59;;;;;;;;;10.75;10.75;;;;;15.99;61.89;101549.00;2085806;28;47347;-51
2021/10/16 00:12:59;;;;;;;;;15.33;14.67;;;;;15.97;61.26;101543.72;2092565;28;47167;-51
2021/10/16 00:14:00;;;;;;;;;13.67;13.67;;;;;15.96;61.59;101543.75;2092006;28;45374;-47
2021/10/16 00:15:00;;;;;;;;;12.75;12.75;;;;;15.96;61.43;101546.44;2083733;28;46189;-49
2021/10/16 00:16:01;;;;;;;;;14.00;13.00;;;;;15.94;61.65;101549.16;2083146;28;45376;-47
2021/10/16 00:17:02;;;;;;;;;12.25;11.50;;;;;15.94;61.37;101542.94;2085116;28;48321;-50
2021/10/16 00:18:02;;;;;;;;;11.50;11.50;;;;;15.92;61.38;101545.66;2076876;28;46976;-49
2021/10/16 00:19:05;;;;;;;;;13.33;13.33;;;;;15.91;61.23;101545.72;2079675;28;47221;-47
2021/10/16 00:20:07;;;;;;;;;13.50;12.25;;;;;15.89;61.56;101543.09;2092532;28;47588;-50
2021/10/16 00:21:08;;;;;;;;;12.00;12.00;;;;;15.88;61.79;101544.00;2090354;28;47169;-49
2021/10/16 00:22:09;;;;;;;;;12.67;11.33;;;;;15.87;61.36;101544.91;2078247;28;48246;-48
2021/10/16 00:23:10;;;;;;;;;13.40;12.80;;;;;15.87;61.43;101550.25;2074986;28;47510;-52
2021/10/16 00:24:10;;;;;;;;;15.67;14.67;;;;;15.86;61.85;101548.50;2081929;28;47890;-48
2021/10/16 00:25:11;;;;;;;;;13.75;11.75;;;;;15.85;61.69;101546.75;2092280;28;47337;-48
2021/10/16 00:26:12;;;;;;;;;13.00;13.00;;;;;15.84;61.61;101547.69;2092449;28;45274;-48
2021/10/16 00:27:13;;;;;;;;;16.50;14.25;;;;;15.83;61.82;101548.59;2092156;28;47588;-46
2021/10/16 00:28:13;;;;;;;;;13.75;13.75;;;;;15.82;61.52;101555.75;2092621;28;46989;-49
2021/10/16 00:29:14;;;;;;;;;10.00;9.33;;;;;15.80;61.49;101554.06;2093766;28;47056;-46
2021/10/16 00:30:14;;;;;;;;;16.25;16.00;;;;;15.79;61.60;101550.50;2092345;28;47119;-49
2021/10/16 00:31:15;;;;;;;;;14.00;14.00;;;;;15.78;61.87;101554.13;2083367;28;46545;-50
2021/10/16 00:32:15;;;;;;;;;17.00;16.00;;;;;15.77;61.48;101555.03;2083309;28;46785;-48
2021/10/16 00:33:17;;;;;;;;;12.75;12.75;;;;;15.77;61.92;101549.69;2083122;28;46991;-48
2021/10/16 00:34:18;;;;;;;;;16.60;14.00;;;;;15.76;61.69;101552.41;2083365;28;45382;-49
2021/10/16 00:35:19;;;;;;;;;17.75;16.00;;;;;15.73;61.66;101553.34;2080500;28;45999;-47
2021/10/16 00:36:20;;;;;;;;;13.40;12.40;;;;;15.72;61.84;101551.59;2080256;28;47212;-50
2021/10/16 00:37:24;;;;;;;;;15.75;14.75;;;;;15.70;62.00;101550.78;2083162;28;47358;-48
2021/10/16 00:38:24;;;;;;;;;13.75;12.75;;;;;15.70;61.55;101550.78;2088211;28;47412;-49
2021/10/16 00:39:25;;;;;;;;;13.00;13.00;;;;;15.69;61.67;101553.50;2083432;28;47033;-51
2021/10/16 00:40:25;;;;;;;;;12.67;12.00;;;;;15.67;61.59;101550.00;2083293;28;47399;-47
2021/10/16 00:41:26;;;;;;;;;14.00;13.67;;;;;15.67;61.71;101545.53;2091414;28;47751;-49
2021/10/16 00:42:26;;;;;;;;;14.00;13.33;;;;;15.66;61.93;101549.13;2093597;28;47094;-47
2021/10/16 00:43:27;;;;;;;;;12.67;12.67;;;;;15.65;61.81;101544.69;2091845;28;47480;-49
2021/10/16 00:44:28;;;;;;;;;13.75;13.25;;;;;15.64;62.08;101544.75;2091987;28;47903;-50
2021/10/16 00:45:28;;;;;;;;;13.50;13.50;;;;;15.64;61.93;101552.78;2082151;28;47056;-48
2021/10/16 00:46:29;;;;;;;;;13.75;13.00;;;;;15.63;61.83;101551.03;2078101;28;48637;-49
2021/10/16 00:47:29;;;;;;;;;13.00;13.00;;;;;15.62;61.76;101554.59;2083827;28;47051;-49
2021/10/16 00:48:30;;;;;;;;;14.50;12.00;;;;;15.61;62.09;101553.72;2092030;28;46844;-48
2021/10/16 00:49:30;;;;;;;;;17.75;15.50;;;;;15.60;61.72;101554.63;2091942;28;48254;-47
2021/10/16 00:50:31;;;;;;;;;13.00;12.00;;;;;15.58;62.00;101551.97;2083440;28;48312;-51
2021/10/16 00:51:33;;;;;;;;;13.67;11.67;;;;;15.56;62.06;101551.16;2083042;28;47139;-51
2021/10/16 00:52:35;;;;;;;;;15.20;14.40;;;;;15.56;62.27;101547.59;2092427;28;46566;-51
2021/10/16 00:53:35;;;;;;;;;14.50;14.00;;;;;15.54;61.96;101550.31;2082902;28;47743;-51
2021/10/16 00:54:36;;;;;;;;;13.75;12.50;;;;;15.54;61.70;101549.44;2083300;28;47396;-51
2021/10/16 00:55:37;;;;;;;;;13.75;13.50;;;;;15.54;61.56;101554.78;2092076;28;46231;-49
2021/10/16 00:56:40;;;;;;;;;18.00;15.50;;;;;15.52;62.17;101552.16;2092172;28;47140;-47
2021/10/16 00:57:41;;;;;;;;;15.75;14.75;;;;;15.51;61.80;101552.22;2091812;28;48334;-48
2021/10/16 00:58:42;;;;;;;;;15.50;15.25;;;;;15.49;61.60;101554.03;2092243;28;47063;-47
2021/10/16 00:59:43;;;;;;;;;14.00;14.00;;;;;15.48;62.18;101552.28;2091945;28;47415;-47
2021/10/16 01:00:43;;;;;;;;;17.00;15.20;;;;;15.48;61.97;101557.63;2083149;28;48397;-51
2021/10/16 01:01:44;;;;;;;;;13.67;13.33;;;;;15.48;61.99;101560.31;2083186;28;47248;-47
2021/10/16 01:02:45;;;;;;;;;14.50;14.50;;;;;15.47;61.70;101555.88;2092013;28;46339;-48
2021/10/16 01:03:46;;;;;;;;;14.67;12.33;;;;;15.46;61.61;101551.44;2091912;28;47985;-49
2021/10/16 01:04:47;;;;;;;;;12.00;12.00;;;;;15.44;61.86;101550.63;2092159;28;47514;-51
2021/10/16 01:05:47;;;;;;;;;14.20;13.60;;;;;15.44;61.74;101550.63;2082887;28;48274;-52
2021/10/16 01:06:48;;;;;;;;;14.50;14.25;;;;;15.43;61.79;101546.19;2083389;28;46133;-48
2021/10/16 01:07:48;;;;;;;;;16.25;15.25;;;;;15.42;61.67;101549.78;2091604;28;48265;-48
2021/10/16 01:08:49;;;;;;;;;15.33;14.00;;;;;15.40;61.79;101544.50;2091578;28;48163;-46
2021/10/16 01:09:49;;;;;;;;;13.33;10.67;;;;;15.39;61.95;101544.53;2091951;28;47327;-50
2021/10/16 01:10:50;;;;;;;;;14.25;13.75;;;;;15.39;61.55;101549.88;2090288;28;47279;-47
2021/10/16 01:11:56;;;;;;;;;14.75;13.00;;;;;15.39;61.93;101547.22;2075778;28;45954;-47
2021/10/16 01:12:58;;;;;;;;;15.20;13.60;;;;;15.37;62.33;101541.88;2084005;28;47505;-48
2021/10/16 01:14:02;;;;;;;;;11.40;11.40;;;;;15.36;62.15;101542.81;2091528;28;47569;-49
2021/10/16 01:15:07;;;;;;;;;13.75;13.00;;;;;15.36;62.05;101541.94;2092214;28;47280;-47
2021/10/16 01:16:08;;;;;;;;;10.00;10.00;;;;;15.35;62.32;101538.38;2091932;28;47791;-51
2021/10/16 01:17:11;;;;;;;;;15.00;15.00;;;;;15.33;62.34;101540.22;2091996;28;47100;-50
2021/10/16 01:18:13;;;;;;;;;15.60;15.20;;;;;15.32;62.10;101541.16;2083055;28;47962;-47
2021/10/16 01:19:16;;;;;;;;;12.20;12.20;;;;;15.32;62.02;101539.34;2074662;28;46294;-49
2021/10/16 01:20:23;;;;;;;;;14.50;14.00;;;;;15.32;62.01;101538.47;2076388;28;47769;-49
2021/10/16 01:21:25;;;;;;;;;15.50;13.75;;;;;15.32;62.30;101541.16;2083111;28;47689;-49
2021/10/16 01:22:27;;;;;;;;;12.00;12.00;;;;;15.30;62.02;101535.84;2082253;28;48324;-49
2021/10/16 01:23:27;;;;;;;;;13.80;13.60;;;;;15.29;62.10;101535.88;2091814;28;47237;-50
2021/10/16 01:24:29;;;;;;;;;12.00;11.75;;;;;15.28;62.28;101539.50;2091890;28;48275;-48
2021/10/16 01:25:29;;;;;;;;;12.00;11.60;;;;;15.27;61.78;101533.25;2091926;28;46025;-47
2021/10/16 01:26:30;;;;;;;;;12.00;12.00;;;;;15.27;61.91;101538.63;2091983;28;46935;-50
2021/10/16 01:27:32;;;;;;;;;13.75;13.00;;;;;15.27;62.41;101529.72;2092039;28;45148;-47
2021/10/16 01:28:33;;;;;;;;;12.25;12.25;;;;;15.25;62.25;101536.91;2091763;28;47593;-46
2021/10/16 01:29:36;;;;;;;;;12.00;11.75;;;;;15.25;62.30;101537.78;2083126;28;47368;-52
2021/10/16 01:30:37;;;;;;;;;12.50;12.00;;;;;15.23;62.23;101534.25;2075123;28;47411;-47
2021/10/16 01:31:37;;;;;;;;;12.67;12.67;;;;;15.22;62.19;101528.94;2074592;28;45725;-49
2021/10/16 01:32:40;;;;;;;;;13.50;13.25;;;;;15.22;62.13;101532.50;2082989;28;46947;-49
2021/10/16 01:33:40;;;;;;;;;8.25;8.25;;;;;15.21;62.03;101530.75;2091765;28;48070;-51
2021/10/16 01:34:42;;;;;;;;;12.25;12.00;;;;;15.20;62.03;101533.47;2082996;28;47068;-53
2021/10/16 01:35:56;;;;;;;;;13.20;13.20;;;;;15.20;62.57;101530.78;2083477;28;46998;-49
2021/10/16 01:36:57;;;;;;;;;12.75;11.75;;;;;15.18;62.25;101528.16;2093010;28;47249;-51
2021/10/16 01:37:58;;;;;;;;;14.00;13.00;;;;;15.18;62.42;101529.97;2084209;28;46894;-50
2021/10/16 01:38:58;;;;;;;;;14.67;12.00;;;;;15.17;61.98;101536.22;2091787;28;48310;-48
2021/10/16 01:39:59;;;;;;;;;12.33;12.33;;;;;15.15;61.92;101536.28;2091726;28;48562;-50
2021/10/16 01:40:59;;;;;;;;;14.00;14.00;;;;;15.15;62.44;101540.75;2082905;28;45349;-49
2021/10/16 01:42:00;;;;;;;;;11.33;9.67;;;;;15.13;62.12;101529.22;2082708;28;47219;-53
2021/10/16 01:43:00;;;;;;;;;15.00;12.33;;;;;15.13;62.12;101530.09;2093121;28;45256;-49
2021/10/16 01:44:04;;;;;;;;;15.00;12.25;;;;;15.13;62.43;101530.09;2075131;28;46059;-50
2021/10/16 01:45:05;;;;;;;;;14.00;13.00;;;;;15.13;62.42;101527.44;2080719;28;48254;-48
2021/10/16 01:46:05;;;;;;;;;12.67;12.67;;;;;15.12;62.54;101536.38;2079421;28;47204;-46
2021/10/16 01:47:06;;;;;;;;;12.33;12.33;;;;;15.12;62.18;101527.44;2076362;28;48327;-49
2021/10/16 01:48:07;;;;;;;;;14.75;12.75;;;;;15.12;62.28;101528.34;2080001;28;47681;-50
2021/10/16 01:49:13;;;;;;;;;10.00;10.00;;;;;15.12;62.22;101528.34;2083494;28;47202;-49
2021/10/16 01:50:14;;;;;;;;;13.75;13.75;;;;;15.12;61.97;101528.34;2090371;28;47672;-51
2021/10/16 01:51:18;;;;;;;;;13.75;13.75;;;;;15.11;62.29;101525.69;2091101;28;47422;-50
2021/10/16 01:52:19;;;;;;;;;15.40;14.40;;;;;15.12;62.09;101531.03;2083568;28;47502;-49
2021/10/16 01:53:20;;;;;;;;;11.75;9.75;;;;;15.11;61.94;101528.38;2083276;28;46050;-52
2021/10/16 01:54:20;;;;;;;;;12.00;11.75;;;;;15.10;62.11;101522.13;2083487;28;48298;-52
2021/10/16 01:55:21;;;;;;;;;11.00;11.00;;;;;15.10;62.62;101526.59;2083555;28;47081;-47
2021/10/16 01:56:21;;;;;;;;;13.25;13.25;;;;;15.10;62.37;101526.59;2083352;28;47315;-51
2021/10/16 01:57:22;;;;;;;;;13.00;13.00;;;;;15.10;62.12;101524.81;2082835;28;47568;-50
2021/10/16 01:58:22;;;;;;;;;11.67;11.67;;;;;15.10;62.36;101522.13;2074529;28;48157;-47
2021/10/16 01:59:26;;;;;;;;;12.75;12.50;;;;;15.10;62.24;101521.25;2082550;28;48279;-47
2021/10/16 02:00:26;;;;;;;;;13.00;12.00;;;;;15.08;62.40;101513.28;2066586;28;47604;-48
2021/10/16 02:01:26;;;;;;;;;12.75;12.75;;;;;15.09;62.10;101516.84;2074727;28;47797;-51
2021/10/16 02:02:27;;;;;;;;;12.25;12.25;;;;;15.09;62.28;101520.38;2078648;28;48127;-49
2021/10/16 02:03:27;;;;;;;;;13.75;13.75;;;;;15.09;62.46;101512.38;2083387;28;47204;-50
2021/10/16 02:04:28;;;;;;;;;15.25;13.25;;;;;15.08;62.33;101515.09;2083119;28;48311;-49
2021/10/16 02:05:28;;;;;;;;;13.67;13.00;;;;;15.09;62.38;101522.19;2082870;28;47893;-48
2021/10/16 02:06:29;;;;;;;;;15.00;14.00;;;;;15.08;62.48;101518.63;2082869;28;46126;-50
2021/10/16 02:07:29;;;;;;;;;13.00;13.00;;;;;15.08;62.31;101523.09;2083251;28;47192;-48
2021/10/16 02:08:30;;;;;;;;;15.00;14.00;;;;;15.08;62.27;101517.75;2084942;28;45358;-48
2021/10/16 02:09:30;;;;;;;;;15.67;14.67;;;;;15.07;61.86;101518.69;2081699;28;47340;-51
2021/10/16 02:10:31;;;;;;;;;16.33;15.33;;;;;15.07;61.96;101513.34;2083249;28;48129;-51
2021/10/16 02:11:32;;;;;;;;;13.67;13.00;;;;;15.05;62.59;101518.72;2082860;28;47444;-49
2021/10/16 02:12:32;;;;;;;;;15.00;15.00;;;;;15.05;62.44;101518.72;2082607;28;47843;-47
2021/10/16 02:13:33;;;;;;;;;14.33;13.00;;;;;15.06;62.62;101512.47;2076505;28;47352;-48
2021/10/16 02:14:33;;;;;;;;;15.00;13.00;;;;;15.06;62.12;101515.13;2083284;28;48081;-50
2021/10/16 02:15:34;;;;;;;;;4.00;4.00;;;;;15.06;62.18;101514.25;2083096;28;46888;-47
2021/10/16 02:16:34;;;;;;;;;13.67;13.00;;;;;15.07;61.87;101516.00;2083295;28;47324;-47
2021/10/16 02:17:35;;;;;;;;;13.67;12.33;;;;;15.07;62.37;101513.34;2074203;28;47410;-48
2021/10/16 02:18:35;;;;;;;;;16.33;15.00;;;;;15.05;62.03;101510.72;2074548;28;47211;-49
2021/10/16 02:19:36;;;;;;;;;12.67;12.00;;;;;15.04;62.13;101511.63;2082201;28;47385;-53
2021/10/16 02:20:36;;;;;;;;;15.00;14.00;;;;;15.02;62.00;101514.34;2083234;28;48224;-51
2021/10/16 02:21:37;;;;;;;;;11.67;11.00;;;;;15.02;62.13;101510.81;2080379;28;48080;-51
2021/10/16 02:22:37;;;;;;;;;12.67;12.33;;;;;15.01;62.33;101509.06;2081154;28;45391;-47
2021/10/16 02:23:37;;;;;;;;;13.50;12.25;;;;;15.00;62.40;101510.84;2082945;28;47921;-50
2021/10/16 02:24:38;;;;;;;;;15.00;14.33;;;;;14.99;62.31;101509.09;2083444;28;48561;-51
2021/10/16 02:25:38;;;;;;;;;12.00;12.00;;;;;15.00;62.36;101509.97;2083059;28;47400;-49
2021/10/16 02:26:39;;;;;;;;;13.50;12.25;;;;;14.98;62.08;101512.66;2083343;28;46279;-51
2021/10/16 02:27:39;;;;;;;;;12.67;12.67;;;;;14.97;62.00;101504.69;2082350;28;47368;-47
2021/10/16 02:28:40;;;;;;;;;15.50;15.50;;;;;14.96;62.36;101509.16;2082568;28;47445;-50
2021/10/16 02:29:40;;;;;;;;;12.25;12.25;;;;;14.96;61.97;101502.94;2082680;28;47268;-50
2021/10/16 02:30:41;;;;;;;;;9.75;9.75;;;;;14.95;62.23;101510.06;2083209;28;47096;-49
2021/10/16 02:31:42;;;;;;;;;12.00;12.00;;;;;14.95;62.33;101506.53;2083144;28;46091;-51
2021/10/16 02:32:42;;;;;;;;;13.75;12.75;;;;;14.94;61.86;101507.44;2083483;28;45818;-49
2021/10/16 02:33:43;;;;;;;;;11.33;10.67;;;;;14.94;62.29;101510.13;2083029;28;46256;-48
2021/10/16 02:34:43;;;;;;;;;18.25;15.50;;;;;14.94;61.97;101515.47;2083340;28;47289;-47
2021/10/16 02:35:44;;;;;;;;;11.25;11.25;;;;;14.94;62.03;101510.13;2083641;28;47045;-52
2021/10/16 02:36:44;;;;;;;;;15.00;14.00;;;;;14.93;61.92;101509.25;2085737;28;47135;-48
2021/10/16 02:37:45;;;;;;;;;11.67;11.67;;;;;14.94;61.94;101510.13;2076300;28;47247;-47
2021/10/16 02:38:46;;;;;;;;;14.00;14.00;;;;;14.92;62.14;101507.50;2082271;28;48269;-50
2021/10/16 02:39:46;;;;;;;;;11.00;9.67;;;;;14.93;62.30;101511.91;2082911;28;46236;-51
2021/10/16 02:40:47;;;;;;;;;13.67;12.67;;;;;14.92;62.20;101509.28;2083487;28;47286;-49
2021/10/16 02:41:47;;;;;;;;;13.33;12.00;;;;;14.92;62.17;101502.16;2081807;28;47249;-50
2021/10/16 02:42:48;;;;;;;;;15.25;15.25;;;;;14.91;61.99;101508.41;2092349;28;48350;-50
2021/10/16 02:43:48;;;;;;;;;15.00;14.25;;;;;14.91;61.99;101508.41;2081083;28;48117;-49
2021/10/16 02:44:49;;;;;;;;;17.00;15.50;;;;;14.91;62.42;101508.41;2082597;28;48598;-49
2021/10/16 02:45:50;;;;;;;;;18.60;15.80;;;;;14.92;62.03;101506.63;2082229;28;47209;-47
2021/10/16 02:46:50;;;;;;;;;14.25;14.25;;;;;14.91;62.08;101500.41;2077985;28;47090;-48
2021/10/16 02:47:51;;;;;;;;;18.25;17.50;;;;;14.91;62.40;101510.22;2076430;28;47272;-47
2021/10/16 02:48:51;;;;;;;;;17.00;15.75;;;;;14.91;61.98;101507.53;2082740;28;47230;-49
2021/10/16 02:49:51;;;;;;;;;16.25;15.25;;;;;14.90;62.37;101506.66;2091159;28;47222;-47
2021/10/16 02:50:52;;;;;;;;;15.50;15.50;;;;;14.90;62.37;101505.78;2091361;28;47002;-52
2021/10/16 02:51:52;;;;;;;;;15.50;15.50;;;;;14.90;61.90;101506.66;2091332;28;47933;-50
2021/10/16 02:52:53;;;;;;;;;20.75;20.50;;;;;14.89;62.35;101506.72;2082285;28;46249;-52
2021/10/16 02:53:53;;;;;;;;;17.25;17.25;;;;;14.88;62.33;101505.84;2082611;28;47399;-48
2021/10/16 02:54:54;;;;;;;;;17.75;17.00;;;;;14.87;61.97;101504.09;2091347;28;47395;-51
2021/10/16 02:55:54;;;;;;;;;17.50;16.00;;;;;14.88;62.30;101504.97;2082364;28;48119;-48
2021/10/16 02:56:55;;;;;;;;;19.50;16.75;;;;;14.88;62.29;101499.63;2082553;28;48300;-48
2021/10/16 02:57:55;;;;;;;;;19.00;17.75;;;;;14.86;62.22;101499.63;2088609;28;48278;-51
2021/10/16 02:58:56;;;;;;;;;17.00;16.00;;;;;14.86;61.97;101504.97;2091205;28;46943;-52
2021/10/16 02:59:56;;;;;;;;;17.50;16.00;;;;;14.83;62.29;101499.72;2091193;28;47567;-52
2021/10/16 03:00:57;;;;;;;;;16.50;15.50;;;;;14.83;62.20;101504.19;2091271;28;47266;-48
2021/10/16 03:01:57;;;;;;;;;17.25;16.00;;;;;14.83;62.04;101496.16;2074192;28;47241;-50
2021/10/16 03:02:58;;;;;;;;;14.75;14.00;;;;;14.82;62.36;101492.63;2067230;28;47180;-52
2021/10/16 03:03:58;;;;;;;;;17.75;16.25;;;;;14.82;61.95;101499.75;2082289;28;47450;-49
2021/10/16 03:04:59;;;;;;;;;15.00;15.00;;;;;14.81;62.31;101492.66;2091330;28;47345;-48
2021/10/16 03:05:59;;;;;;;;;15.50;15.50;;;;;14.80;62.21;101497.13;2091021;28;47591;-50
2021/10/16 03:07:00;;;;;;;;;18.50;17.50;;;;;14.81;62.20;101495.34;2082378;28;48139;-48
2021/10/16 03:08:00;;;;;;;;;13.50;13.00;;;;;14.79;62.15;101498.06;2082178;28;48575;-47
2021/10/16 03:09:00;;;;;;;;;13.75;12.00;;;;;14.79;62.29;101494.50;2092380;28;47109;-47
2021/10/16 03:10:01;;;;;;;;;13.00;13.00;;;;;14.78;62.00;101496.31;2092124;28;48204;-48
2021/10/16 03:11:01;;;;;;;;;16.00;13.75;;;;;14.77;62.24;101493.69;2088343;28;47235;-47
2021/10/16 03:12:04;;;;;;;;;15.75;15.75;;;;;14.77;62.42;101497.22;2085070;28;47423;-48
2021/10/16 03:13:04;;;;;;;;;15.25;13.75;;;;;14.77;62.30;101491.00;2091333;28;48307;-50
2021/10/16 03:14:04;;;;;;;;;20.25;15.50;;;;;14.75;62.32;101491.03;2090983;28;48454;-51
2021/10/16 03:15:05;;;;;;;;;11.33;11.33;;;;;14.76;62.24;101497.28;2091035;28;48329;-49
2021/10/16 03:16:06;;;;;;;;;12.67;12.00;;;;;14.74;62.38;101491.97;2091371;28;48107;-51
2021/10/16 03:17:06;;;;;;;;;15.00;14.67;;;;;14.73;61.89;101495.53;2091153;28;47663;-51
2021/10/16 03:18:07;;;;;;;;;13.50;12.75;;;;;14.73;61.97;101498.19;2084386;28;47069;-49
2021/10/16 03:19:08;;;;;;;;;15.25;12.50;;;;;14.70;61.85;101491.16;2087625;28;47666;-49
2021/10/16 03:20:09;;;;;;;;;15.25;14.25;;;;;14.69;62.08;101492.06;2091425;28;47009;-51
2021/10/16 03:21:10;;;;;;;;;13.25;12.25;;;;;14.68;62.22;101492.13;2089428;28;46364;-49
2021/10/16 03:22:11;;;;;;;;;14.25;14.00;;;;;14.67;62.15;101491.25;2076942;28;46147;-50
2021/10/16 03:23:11;;;;;;;;;14.50;13.75;;;;;14.66;62.47;101489.47;2082259;28;48129;-50
2021/10/16 03:24:12;;;;;;;;;14.50;14.50;;;;;14.66;62.35;101491.28;2072414;28;48129;-51
2021/10/16 03:25:12;;;;;;;;;15.50;15.50;;;;;14.65;62.55;101497.53;2073895;28;48345;-51
2021/10/16 03:26:12;;;;;;;;;10.00;8.00;;;;;14.64;62.15;101491.31;2091284;28;48185;-49
2021/10/16 03:27:13;;;;;;;;;15.50;15.00;;;;;14.63;62.39;101489.56;2091032;28;47376;-49
2021/10/16 03:28:13;;;;;;;;;13.25;13.25;;;;;14.62;62.32;101486.94;2082336;28;48126;-49
2021/10/16 03:29:14;;;;;;;;;14.50;14.50;;;;;14.63;62.45;101489.56;2082156;28;45351;-50
2021/10/16 03:30:15;;;;;;;;;16.25;15.25;;;;;14.62;62.27;101490.50;2086463;28;45083;-48
2021/10/16 03:31:15;;;;;;;;;20.50;16.50;;;;;14.63;62.77;101491.38;2091209;28;47368;-51
2021/10/16 03:32:15;;;;;;;;;17.50;17.50;;;;;14.61;62.31;101491.41;2091150;28;47273;-50
2021/10/16 03:33:16;;;;;;;;;21.25;20.50;;;;;14.61;62.55;101490.50;2090999;28;47258;-51
2021/10/16 03:34:17;;;;;;;;;19.75;16.25;;;;;14.59;62.56;101487.00;2091212;28;47301;-51
2021/10/16 03:35:17;;;;;;;;;19.50;18.25;;;;;14.57;62.12;101487.03;2091059;28;47207;-50
2021/10/16 03:36:18;;;;;;;;;24.25;19.25;;;;;14.57;62.49;101489.72;2096515;28;48433;-52
2021/10/16 03:37:18;;;;;;;;;19.50;19.50;;;;;14.57;62.36;101492.38;2086892;28;47145;-48
2021/10/16 03:38:19;;;;;;;;;23.00;23.00;;;;;14.56;62.21;101495.09;2086003;28;47344;-55
2021/10/16 03:39:19;;;;;;;;;20.25;19.75;;;;;14.55;62.71;101491.56;2091338;28;48126;-49
2021/10/16 03:40:20;;;;;;;;;22.75;21.75;;;;;14.54;62.56;101483.59;2091131;28;48326;-50
2021/10/16 03:41:20;;;;;;;;;28.50;27.75;;;;;14.53;62.16;101495.19;2076122;28;47679;-51
2021/10/16 03:42:21;;;;;;;;;24.75;23.00;;;;;14.54;62.51;101496.94;2076029;28;47174;-49
2021/10/16 03:43:21;;;;;;;;;29.00;28.00;;;;;14.52;62.17;101493.44;2094308;28;46913;-51
2021/10/16 03:44:22;;;;;;;;;29.50;27.25;;;;;14.51;62.44;101487.22;2092252;28;47051;-51
2021/10/16 03:45:22;;;;;;;;;30.75;29.25;;;;;14.51;62.74;101489.88;2092344;28;48147;-52
2021/10/16 03:46:22;;;;;;;;;33.25;28.50;;;;;14.50;62.79;101487.25;2088361;28;46052;-51
2021/10/16 03:47:23;;;;;;;;;33.00;31.75;;;;;14.50;62.72;101489.94;2084304;28;47943;-50
2021/10/16 03:48:23;;;;;;;;;31.25;29.25;;;;;14.49;62.47;101483.72;2091025;28;47289;-51
2021/10/16 03:49:24;;;;;;;;;35.00;32.00;;;;;14.49;63.00;101485.50;2092383;28;47013;-52
2021/10/16 03:50:24;;;;;;;;;30.50;29.00;;;;;14.49;62.37;101483.72;2092792;28;47356;-52
2021/10/16 03:51:25;;;;;;;;;32.00;30.75;;;;;14.49;62.77;101485.50;2083361;28;47402;-52
2021/10/16 03:52:25;;;;;;;;;34.50;29.50;;;;;14.47;62.56;101473.97;2083611;28;48262;-48
2021/10/16 03:53:26;;;;;;;;;35.50;31.00;;;;;14.46;62.54;101483.78;2091222;28;46582;-48
2021/10/16 03:54:26;;;;;;;;;34.50;30.00;;;;;14.46;62.82;101485.56;2092596;28;48443;-51
2021/10/16 03:55:27;;;;;;;;;34.00;30.00;;;;;14.45;62.47;101487.34;2092346;28;48194;-51
2021/10/16 03:56:27;;;;;;;;;35.75;32.00;;;;;14.44;62.59;101488.28;2092499;28;47344;-49
2021/10/16 03:57:28;;;;;;;;;23.25;22.50;;;;;14.43;62.70;101484.69;2092238;28;47336;-50
2021/10/16 03:58:28;;;;;;;;;29.50;29.00;;;;;14.43;62.64;101492.72;2092459;28;48148;-51
2021/10/16 03:59:29;;;;;;;;;25.25;25.00;;;;;14.43;62.70;101487.38;2083380;28;46313;-50
2021/10/16 04:00:29;;;;;;;;;30.75;28.50;;;;;14.42;62.94;101490.09;2074843;28;46300;-51
2021/10/16 04:01:30;;;;;;;;;29.00;28.00;;;;;14.42;62.84;101493.63;2083258;28;46343;-48
2021/10/16 04:02:30;;;;;;;;;26.25;23.25;;;;;14.42;62.87;101495.41;2091683;28;47547;-51
2021/10/16 04:03:31;;;;;;;;;17.00;17.00;;;;;14.42;62.44;101501.63;2090484;28;47525;-51
2021/10/16 04:04:32;;;;;;;;;15.25;13.75;;;;;14.42;62.71;101503.44;2084157;28;47377;-51
2021/10/16 04:05:33;;;;;;;;;17.75;16.50;;;;;14.40;62.31;101499.94;2084009;28;46134;-52
2021/10/16 04:06:34;;;;;;;;;15.80;15.00;;;;;14.39;62.38;101503.53;2084049;28;46298;-49
2021/10/16 04:07:34;;;;;;;;;17.50;16.25;;;;;14.38;62.62;101504.44;2082954;28;46909;-46
2021/10/16 04:08:35;;;;;;;;;14.25;14.25;;;;;14.37;62.39;101508.91;2084148;28;47350;-48
2021/10/16 04:09:36;;;;;;;;;15.40;14.80;;;;;14.36;62.34;101498.25;2083989;28;48175;-52
2021/10/16 04:10:36;;;;;;;;;15.75;13.25;;;;;14.36;62.67;101501.81;2081644;28;47923;-51
2021/10/16 04:11:37;;;;;;;;;15.00;15.00;;;;;14.36;62.82;101501.81;2083013;28;47425;-50
2021/10/16 04:12:37;;;;;;;;;16.33;14.33;;;;;14.36;62.43;101504.47;2092615;28;47998;-50
2021/10/16 04:13:38;;;;;;;;;15.00;15.00;;;;;14.36;62.71;101504.47;2091936;28;47196;-47
2021/10/16 04:14:38;;;;;;;;;18.75;16.50;;;;;14.35;62.67;101505.34;2092498;28;46986;-50
2021/10/16 04:15:39;;;;;;;;;18.00;17.00;;;;;14.36;62.71;101503.59;2089342;28;48008;-48
2021/10/16 04:16:39;;;;;;;;;13.00;13.00;;;;;14.36;62.45;101508.94;2084195;28;48000;-51
2021/10/16 04:17:40;;;;;;;;;16.25;16.25;;;;;14.36;62.64;101507.16;2083909;28;48211;-49
2021/10/16 04:18:40;;;;;;;;;16.75;15.25;;;;;14.35;62.59;101499.16;2084025;28;48213;-49
2021/10/16 04:19:41;;;;;;;;;14.50;14.25;;;;;14.35;62.50;101505.34;2084064;28;45137;-52
2021/10/16 04:20:41;;;;;;;;;17.40;17.00;;;;;14.35;62.41;101507.16;2075289;28;48346;-48
2021/10/16 04:21:42;;;;;;;;;17.75;15.00;;;;;14.33;62.10;101509.88;2071828;28;47313;-48
2021/10/16 04:22:42;;;;;;;;;13.50;12.50;;;;;14.32;62.38;101507.25;2074966;28;48207;-50
2021/10/16 04:23:43;;;;;;;;;17.75;16.00;;;;;14.31;62.44;101509.03;2092235;28;48326;-48
2021/10/16 04:24:44;;;;;;;;;15.25;15.25;;;;;14.30;62.16;101501.94;2088897;28;48121;-51
2021/10/16 04:25:44;;;;;;;;;17.25;15.75;;;;;14.28;62.35;101501.09;2083982;28;48165;-51
2021/10/16 04:26:45;;;;;;;;;15.50;15.50;;;;;14.28;62.34;101513.59;2081834;28;47337;-49
2021/10/16 04:27:45;;;;;;;;;11.00;11.00;;;;;14.27;61.98;101504.69;2083386;28;47456;-52
2021/10/16 04:28:47;;;;;;;;;12.50;12.50;;;;;14.25;61.99;101498.53;2092205;28;47983;-47
2021/10/16 04:29:47;;;;;;;;;12.80;12.80;;;;;14.25;62.36;101511.00;2087116;28;47625;-49
2021/10/16 04:30:48;;;;;;;;;14.00;14.00;;;;;14.25;62.27;101505.66;2084041;28;48100;-52
2021/10/16 04:31:48;;;;;;;;;14.50;14.25;;;;;14.24;62.11;101502.09;2083926;28;48219;-49
2021/10/16 04:32:49;;;;;;;;;15.25;14.25;;;;;14.23;62.09;101504.78;2083940;28;47249;-48
2021/10/16 04:33:49;;;;;;;;;13.00;13.00;;;;;14.22;62.11;101500.34;2083979;28;47312;-47
2021/10/16 04:34:50;;;;;;;;;14.50;14.50;;;;;14.22;62.13;101511.91;2083858;28;46175;-47
2021/10/16 04:35:50;;;;;;;;;17.75;14.50;;;;;14.22;62.22;101511.91;2078313;28;48389;-49
2021/10/16 04:36:51;;;;;;;;;17.00;16.75;;;;;14.20;62.15;101503.06;2091818;28;47249;-49